Airfield :
LOGIN :

Register | Disclaimer

   EN    FR    IT 

 










Legend :    VFR   Marginal VFR   IFR   Intensive IFR   Very Intensive IFR
Visi :
Ceiling :
>= 8 km
>= 3000ft
5 to 8 km
1000 to 3000 ft
1500m to 5 km
500 to 1000 ft
800 to 1500m
200 to 500 ft
< 800m
< 200 ft
Symbols :   Thunderstorms  Fog  Heavy snow  Heavy precipitations  Wind > 20 kt
SIGMETs :     Misc.  Thunderstorms  Icing  Turbulence  Mountain Waves  Volcanic Ashes







- Airport Elevation : 158 ft
- IATA code : QAR


EHDL - Deelen Airbase

CURRENT METAR :
  • 211355Z AUTO 24011KT 190V290 9999 BKN018 OVC024 11/07 Q1025 WHT

EXPIRED METARs :
  • 211325Z AUTO 24010KT 190V280 9999 FEW017 OVC028 11/08 Q1025 BLU
  • 211255Z AUTO 25009KT 190V290 9999 BKN028 OVC031 11/07 Q1026 BLU
  • 211225Z AUTO 24010KT 220V300 9999 FEW016 OVC039 11/08 Q1026 BLU
  • 211155Z AUTO 25011KT 180V310 9999 BKN015 BKN018 BKN047 11/08 Q1025 WHT
  • 211125Z AUTO 24011KT 180V300 9999 FEW020 BKN086 OVC093 11/07 Q1025 BLU
  • 211055Z AUTO 24011KT 180V290 9999 BKN047 BKN057 OVC096 10/07 Q1026 BLU

TAF COR TAF EHDL
Valid from the 21 at 10:00 until the 21 at 22:00 UTC


210956Z 2110/2122 23006KT 7000 NSC
BECMG 2110/2112 27008G18KT SCT015 BKN030
PROB40
TEMPO 2113/2119 4000 -RADZ BKN010
BECMG 2114/2217 25008KT SCT020
No reported NOTAMs for that airfield.



MET'MAP, your aeronautical weather chart ! - Copyright ORBIFLY December 2007 - Disclaimer

ORBIFLY MET'MAP TEAM :

Programming & Development : Alexandra Zaïnal
Concept & Development : Baudouin d'Aumeries
Co-Development & Prog : Marc-Olivier Méhu
Technical & hardware support : Manuel Goepfert

Contact : metmap@orbifly.com




SOURCES & CREDITS :

   NOAA